Flight Track Log - Related Links

Times and Time Zones

All times are in EST time to prevent confusion due to time zone crossing. See the ASQ5685 flight status page for this flight to view local times or setup timezone preferences in your user account.

Time Position Orientation Groundspeed Altitude Reporting Facility
EST Latitude Longitude Course Direction KTS MPH feet Rate Location/Type
Tue 11:20:34 AM 33.6333 -84.4667 70° East 151 174 2,600  Level Atlanta TRACON
Tue 11:21:34 AM 33.6000 -84.5333 239° Southwest 245 282 4,100 2,100 Climbing Atlanta TRACON
Tue 11:22:34 AM 33.5500 -84.5833 220° Southwest 286 329 6,800 2,687 Climbing Atlanta TRACON
Tue 11:23:00 AM 33.9861 -84.0117 53° Northeast  Level Estimated
Tue 11:23:48 AM 33.4614 -84.5542 165° South 280 322 10,100  Level Atlanta Center
Tue 11:24:00 AM 34.0279 -83.8723 70° East  Level FlightAware Approximate
Tue 11:24:48 AM 33.4533 -84.4222 94° East 300 345 11,300  Level Atlanta Center
Tue 11:25:00 AM 34.0695 -83.7327 70° East  Level FlightAware Approximate
Tue 11:25:48 AM 33.4725 -84.2803 81° East 398 458 12,300  Level Atlanta Center
Tue 11:26:48 AM 33.5750 -84.1983 34° Northeast 377 434 13,400 1,200 Climbing Atlanta Center
Tue 11:27:48 AM 33.6836 -84.1261 29° Northeast 415 478 14,700 1,350 Climbing Atlanta Center
Tue 11:28:48 AM 33.7733 -84.0214 44° Northeast 436 502 16,100 1,150 Climbing Atlanta Center
Tue 11:29:48 AM 33.8400 -83.8911 58° Northeast 443 510 17,000 750 Climbing Atlanta Center
Tue 11:30:48 AM 33.9128 -83.7508 58° Northeast 467 537 17,600 850 Climbing Atlanta Center
Tue 11:31:48 AM 33.9897 -83.6203 55° Northeast 486 559 18,700 1,200 Climbing Atlanta Center
Tue 11:32:48 AM 34.0706 -83.4897 53° Northeast 481 554 20,000 3,150 Climbing Atlanta Center
Tue 11:33:48 AM 34.1556 -83.3636 51° Northeast 481 554 25,000 900 Climbing Atlanta Center
Tue 11:34:48 AM 34.2342 -83.2297 55° Northeast 481 554 21,800 -1,200 Descending Atlanta Center
Tue 11:35:48 AM 34.3167 -83.1006 52° Northeast 489 563 22,600 800 Climbing Atlanta Center
Tue 11:36:48 AM 34.3989 -82.9639 54° Northeast 489 563 23,400 750 Climbing Atlanta Center
Tue 11:37:48 AM 34.4731 -82.8444 53° Northeast 484 557 24,100 750 Climbing Atlanta Center
Tue 11:38:48 AM 34.5572 -82.7069 53° Northeast 489 563 24,900 450 Climbing Atlanta Center
Tue 11:39:48 AM 34.6494 -82.5592 53° Northeast 496 571 25,000 50 Climbing Atlanta Center
Tue 11:40:48 AM 34.7372 -82.4161 53° Northeast 508 585 25,000  Level Atlanta Center
Tue 11:41:48 AM 34.8292 -82.2650 53° Northeast 524 603 25,000  Level Atlanta Center
Tue 11:42:48 AM 34.9186 -82.1161 54° Northeast 536 617 25,000  Level Atlanta Center
Tue 11:43:48 AM 35.0122 -81.9694 52° Northeast 549 632 25,000  Level Atlanta Center
Tue 11:44:48 AM 35.0992 -81.8097 56° Northeast 549 632 25,000  Level Atlanta Center
Tue 11:45:48 AM 35.1794 -81.6450 59° Northeast 559 643 25,000  Level Atlanta Center
Tue 11:46:48 AM 35.2703 -81.4847 55° Northeast 564 649 25,000  Level Atlanta Center
Tue 11:47:48 AM 35.3522 -81.3242 58° Northeast 564 649 25,000  Level Atlanta Center
Tue 11:48:48 AM 35.4381 -81.1533 58° Northeast 569 655 25,000  Level Atlanta Center
Tue 11:49:48 AM 35.5139 -81.0050 58° Northeast 578 665 25,000  Level Atlanta Center
Tue 11:50:48 AM 35.5994 -80.8411 57° Northeast 578 665 25,000  Level Atlanta Center
Tue 11:51:48 AM 35.6947 -80.6633 57° Northeast 573 659 25,000  Level Atlanta Center
Tue 11:53:47 AM 35.8614 -80.3436 57° Northeast 558 642 25,000  Level Washington Center
Tue 11:54:48 AM 35.9472 -80.1769 58° Northeast 558 642 25,000  Level Washington Center
Tue 11:55:47 AM 36.0306 -80.0097 58° Northeast 563 648 25,000  Level Washington Center
Tue 11:56:47 AM 36.1222 -79.8478 55° Northeast 563 648 25,000  Level Washington Center
Tue 11:57:48 AM 36.2114 -79.6853 56° Northeast 587 676 25,000  Level Washington Center
Tue 11:58:48 AM 36.3064 -79.5200 54° Northeast 574 661 25,000  Level Washington Center
Tue 11:59:49 AM 36.3883 -79.3772 54° Northeast 574 661 25,000 -50 Level Washington Center
Tue 12:00:49 PM 36.4972 -79.2300 47° Northeast 569 655 24,900 -305 Descending Washington Center
Tue 12:01:47 PM 36.6100 -79.0850 46° Northeast 569 655 24,400 -458 Descending Washington Center
Tue 12:02:47 PM 36.7339 -78.9169 47° Northeast 588 677 24,000 -198 Descending Washington Center
Tue 12:03:48 PM 36.8442 -78.7686 47° Northeast 583 671 24,000  Level Washington Center
Tue 12:04:48 PM 36.9544 -78.6197 47° Northeast 583 671 24,000  Level Washington Center
Tue 12:05:47 PM 37.0517 -78.4858 48° Northeast 583 671 24,000  Level Washington Center
Tue 12:06:47 PM 37.1636 -78.3389 46° Northeast 583 671 24,000  Level Washington Center
Tue 12:07:47 PM 37.2933 -78.2261 35° Northeast 567 652 24,000 -149 Level Washington Center
Tue 12:08:48 PM 37.4336 -78.1028 35° Northeast 567 652 23,700  Descending Washington Center
Tue 12:09:48 PM 37.5633 -77.9889 35° Northeast 562 647 24,000 -2,420 Climbing Washington Center
Tue 12:10:47 PM 37.6883 -77.8803 35° Northeast 557 641 18,900 -3,900 Descending Washington Center
Tue 12:11:48 PM 37.8114 -77.7733 34° Northeast 545 627 16,200 -2,727 Descending Washington Center
Tue 12:12:48 PM 37.9281 -77.6717 34° Northeast 534 615 13,400 -2,529 Descending Washington Center
Tue 12:13:49 PM 38.0358 -77.5797 34° Northeast 503 579 11,100 -1,664 Descending Washington Center
Tue 12:14:47 PM 38.1331 -77.4925 35° Northeast 452 520 10,100 -555 Descending Washington Center
Tue 12:15:48 PM 38.2175 -77.4336 29° Northeast 400 460 10,000 -639 Descending Washington Center
Tue 12:16:49 PM 38.2967 -77.4331 360° North 310 357 8,800 -1,190 Descending Washington Center
Tue 12:17:49 PM 38.3781 -77.4403 356° North 294 338 7,600 -1,068 Descending Washington Center
Tue 12:18:47 PM 38.4508 -77.4447 357° North 278 320 6,700 -1,109 Descending Washington Center
Tue 12:19:48 PM 38.5236 -77.4519 356° North 262 302 5,400 -836 Descending Washington Center
Tue 12:20:49 PM 38.5967 -77.4617 354° North 262 302 5,000 -211 Descending Washington Center
Tue 12:21:42 PM 38.6667 -77.4667 357° North 260 299 5,000 -56 Level Potomac TRACON
Tue 12:22:36 PM 38.7333 -77.4667 360° North 228 262 4,900 -737 Descending Potomac TRACON
Tue 12:23:36 PM 38.7833 -77.4667 360° North 195 224 3,600 -1,100 Descending Potomac TRACON
Tue 12:24:36 PM 38.8333 -77.4667 360° North 162 186 2,700 -900 Descending Potomac TRACON
Tue 12:25:36 PM 38.8667 -77.4667 360° North 146 168 1,800 -850 Descending Potomac TRACON
Tue 12:26:36 PM 38.9000 -77.4667 360° North 131 151 1,000 -800 Descending Potomac TRACON

Login

Don't have an account? Register now (free) for customized features, flight alerts, and more!